sensor_id;sensor_type;location;lat;lon;timestamp;temperature;humidity
70154;DHT22;57519;51.494;-2.626;2023-04-15T00:00:23;2.83;95.18
70154;DHT22;57519;51.494;-2.626;2023-04-15T00:02:50;2.87;95.41
70154;DHT22;57519;51.494;-2.626;2023-04-15T00:05:15;2.86;95.28
70154;DHT22;57519;51.494;-2.626;2023-04-15T00:07:40;2.83;95.33
70154;DHT22;57519;51.494;-2.626;2023-04-15T00:10:06;2.77;95.16
70154;DHT22;57519;51.494;-2.626;2023-04-15T00:12:32;2.65;94.97
70154;DHT22;57519;51.494;-2.626;2023-04-15T00:14:57;2.76;95.19
70154;DHT22;57519;51.494;-2.626;2023-04-15T00:17:23;2.89;95.60
70154;DHT22;57519;51.494;-2.626;2023-04-15T00:19:48;2.87;95.54
70154;DHT22;57519;51.494;-2.626;2023-04-15T00:22:14;2.79;95.29
70154;DHT22;57519;51.494;-2.626;2023-04-15T00:24:39;2.79;95.23
70154;DHT22;57519;51.494;-2.626;2023-04-15T00:27:05;2.79;95.35
70154;DHT22;57519;51.494;-2.626;2023-04-15T00:29:30;2.75;95.17
70154;DHT22;57519;51.494;-2.626;2023-04-15T00:31:56;2.82;95.17
70154;DHT22;57519;51.494;-2.626;2023-04-15T00:34:22;3.34;95.70
70154;DHT22;57519;51.494;-2.626;2023-04-15T00:36:48;3.46;95.33
70154;DHT22;57519;51.494;-2.626;2023-04-15T00:39:14;3.86;95.12
70154;DHT22;57519;51.494;-2.626;2023-04-15T00:41:40;3.82;94.77
70154;DHT22;57519;51.494;-2.626;2023-04-15T00:44:06;3.48;94.19
70154;DHT22;57519;51.494;-2.626;2023-04-15T00:46:32;3.42;94.40
70154;DHT22;57519;51.494;-2.626;2023-04-15T00:49:02;3.42;94.61
70154;DHT22;57519;51.494;-2.626;2023-04-15T00:51:28;3.46;94.83
70154;DHT22;57519;51.494;-2.626;2023-04-15T00:53:53;3.54;95.11
70154;DHT22;57519;51.494;-2.626;2023-04-15T00:56:20;3.68;94.94
70154;DHT22;57519;51.494;-2.626;2023-04-15T00:58:50;3.54;94.88
70154;DHT22;57519;51.494;-2.626;2023-04-15T01:01:17;3.56;95.14
70154;DHT22;57519;51.494;-2.626;2023-04-15T01:03:45;3.58;95.10
70154;DHT22;57519;51.494;-2.626;2023-04-15T01:06:11;3.50;95.18
70154;DHT22;57519;51.494;-2.626;2023-04-15T01:08:37;3.52;95.34
70154;DHT22;57519;51.494;-2.626;2023-04-15T01:11:03;3.28;94.99
70154;DHT22;57519;51.494;-2.626;2023-04-15T01:13:29;3.11;94.75
70154;DHT22;57519;51.494;-2.626;2023-04-15T01:15:56;3.07;95.01
70154;DHT22;57519;51.494;-2.626;2023-04-15T01:18:22;2.96;94.95
70154;DHT22;57519;51.494;-2.626;2023-04-15T01:20:48;2.87;94.98
70154;DHT22;57519;51.494;-2.626;2023-04-15T01:23:14;2.87;95.15
70154;DHT22;57519;51.494;-2.626;2023-04-15T01:25:42;2.80;95.27
70154;DHT22;57519;51.494;-2.626;2023-04-15T01:28:09;2.92;95.41
70154;DHT22;57519;51.494;-2.626;2023-04-15T01:30:35;2.97;95.45
70154;DHT22;57519;51.494;-2.626;2023-04-15T01:33:00;2.82;95.37
70154;DHT22;57519;51.494;-2.626;2023-04-15T01:35:26;2.66;95.24
70154;DHT22;57519;51.494;-2.626;2023-04-15T01:37:53;2.67;95.39
70154;DHT22;57519;51.494;-2.626;2023-04-15T01:40:19;2.65;95.49
70154;DHT22;57519;51.494;-2.626;2023-04-15T01:42:45;2.66;95.59
70154;DHT22;57519;51.494;-2.626;2023-04-15T01:45:10;2.60;95.52
70154;DHT22;57519;51.494;-2.626;2023-04-15T01:47:36;2.57;95.50
70154;DHT22;57519;51.494;-2.626;2023-04-15T01:50:02;2.55;95.41
70154;DHT22;57519;51.494;-2.626;2023-04-15T01:52:27;2.50;95.44
70154;DHT22;57519;51.494;-2.626;2023-04-15T01:54:53;2.52;95.68
70154;DHT22;57519;51.494;-2.626;2023-04-15T01:57:18;2.49;95.66
70154;DHT22;57519;51.494;-2.626;2023-04-15T01:59:43;2.59;95.77
70154;DHT22;57519;51.494;-2.626;2023-04-15T02:02:09;2.56;95.73
70154;DHT22;57519;51.494;-2.626;2023-04-15T02:04:34;2.66;95.89
70154;DHT22;57519;51.494;-2.626;2023-04-15T02:07:00;2.69;95.88
70154;DHT22;57519;51.494;-2.626;2023-04-15T02:09:25;2.62;95.83
70154;DHT22;57519;51.494;-2.626;2023-04-15T02:11:51;2.57;95.75
70154;DHT22;57519;51.494;-2.626;2023-04-15T02:14:18;2.56;95.75
70154;DHT22;57519;51.494;-2.626;2023-04-15T02:16:43;2.62;95.80
70154;DHT22;57519;51.494;-2.626;2023-04-15T02:19:09;2.55;95.70
70154;DHT22;57519;51.494;-2.626;2023-04-15T02:21:35;2.57;95.70
70154;DHT22;57519;51.494;-2.626;2023-04-15T02:24:00;2.62;95.79
70154;DHT22;57519;51.494;-2.626;2023-04-15T02:26:26;2.52;95.71
70154;DHT22;57519;51.494;-2.626;2023-04-15T02:28:53;2.45;95.61
70154;DHT22;57519;51.494;-2.626;2023-04-15T02:31:19;2.36;95.45
70154;DHT22;57519;51.494;-2.626;2023-04-15T02:33:45;2.32;95.48
70154;DHT22;57519;51.494;-2.626;2023-04-15T02:36:14;2.31;95.55
70154;DHT22;57519;51.494;-2.626;2023-04-15T02:38:39;2.35;95.73
70154;DHT22;57519;51.494;-2.626;2023-04-15T02:41:08;2.25;95.64
70154;DHT22;57519;51.494;-2.626;2023-04-15T02:43:33;2.20;95.59
70154;DHT22;57519;51.494;-2.626;2023-04-15T02:45:59;2.21;95.60
70154;DHT22;57519;51.494;-2.626;2023-04-15T02:48:24;2.15;95.53
70154;DHT22;57519;51.494;-2.626;2023-04-15T02:50:50;2.10;95.49
70154;DHT22;57519;51.494;-2.626;2023-04-15T02:53:15;2.03;95.42
70154;DHT22;57519;51.494;-2.626;2023-04-15T02:55:41;2.06;95.52
70154;DHT22;57519;51.494;-2.626;2023-04-15T02:58:07;2.04;95.49
70154;DHT22;57519;51.494;-2.626;2023-04-15T03:00:32;1.94;95.40
70154;DHT22;57519;51.494;-2.626;2023-04-15T03:03:01;2.06;95.58
70154;DHT22;57519;51.494;-2.626;2023-04-15T03:05:27;2.00;95.56
70154;DHT22;57519;51.494;-2.626;2023-04-15T03:07:52;1.97;95.48
70154;DHT22;57519;51.494;-2.626;2023-04-15T03:10:18;1.97;95.59
70154;DHT22;57519;51.494;-2.626;2023-04-15T03:12:43;2.11;95.62
70154;DHT22;57519;51.494;-2.626;2023-04-15T03:15:09;2.08;95.66
70154;DHT22;57519;51.494;-2.626;2023-04-15T03:17:34;1.98;95.51
70154;DHT22;57519;51.494;-2.626;2023-04-15T03:20:03;2.24;95.81
70154;DHT22;57519;51.494;-2.626;2023-04-15T03:22:32;2.15;95.40
70154;DHT22;57519;51.494;-2.626;2023-04-15T03:24:58;2.00;95.23
70154;DHT22;57519;51.494;-2.626;2023-04-15T03:27:24;2.17;95.57
70154;DHT22;57519;51.494;-2.626;2023-04-15T03:29:50;2.08;95.60
70154;DHT22;57519;51.494;-2.626;2023-04-15T03:32:16;1.96;95.45
70154;DHT22;57519;51.494;-2.626;2023-04-15T03:34:42;1.81;95.38
70154;DHT22;57519;51.494;-2.626;2023-04-15T03:37:08;1.77;95.39
70154;DHT22;57519;51.494;-2.626;2023-04-15T03:39:34;1.64;95.35
70154;DHT22;57519;51.494;-2.626;2023-04-15T03:42:00;1.73;95.56
70154;DHT22;57519;51.494;-2.626;2023-04-15T03:44:26;1.71;95.60
70154;DHT22;57519;51.494;-2.626;2023-04-15T03:46:51;1.84;95.95
70154;DHT22;57519;51.494;-2.626;2023-04-15T03:49:17;1.91;96.01
70154;DHT22;57519;51.494;-2.626;2023-04-15T03:51:43;1.76;95.73
70154;DHT22;57519;51.494;-2.626;2023-04-15T03:54:09;1.77;95.74
70154;DHT22;57519;51.494;-2.626;2023-04-15T03:56:34;1.62;95.56
70154;DHT22;57519;51.494;-2.626;2023-04-15T03:59:00;1.80;95.85
70154;DHT22;57519;51.494;-2.626;2023-04-15T04:01:25;1.69;95.80
70154;DHT22;57519;51.494;-2.626;2023-04-15T04:03:50;1.53;95.70
70154;DHT22;57519;51.494;-2.626;2023-04-15T04:06:16;1.63;95.77
70154;DHT22;57519;51.494;-2.626;2023-04-15T04:08:41;1.59;95.87
70154;DHT22;57519;51.494;-2.626;2023-04-15T04:11:07;1.70;96.05
70154;DHT22;57519;51.494;-2.626;2023-04-15T04:13:33;1.77;96.19
70154;DHT22;57519;51.494;-2.626;2023-04-15T04:15:58;1.71;96.02
70154;DHT22;57519;51.494;-2.626;2023-04-15T04:18:23;1.73;96.21
70154;DHT22;57519;51.494;-2.626;2023-04-15T04:20:49;1.80;96.27
70154;DHT22;57519;51.494;-2.626;2023-04-15T04:23:14;1.83;96.22
70154;DHT22;57519;51.494;-2.626;2023-04-15T04:25:40;1.80;96.19
70154;DHT22;57519;51.494;-2.626;2023-04-15T04:28:05;1.79;96.14
70154;DHT22;57519;51.494;-2.626;2023-04-15T04:30:32;1.77;96.04
70154;DHT22;57519;51.494;-2.626;2023-04-15T04:32:58;1.71;95.96
70154;DHT22;57519;51.494;-2.626;2023-04-15T04:35:23;1.71;95.95
70154;DHT22;57519;51.494;-2.626;2023-04-15T04:37:48;1.76;95.97
70154;DHT22;57519;51.494;-2.626;2023-04-15T04:40:15;1.76;95.91
70154;DHT22;57519;51.494;-2.626;2023-04-15T04:42:40;1.74;95.91
70154;DHT22;57519;51.494;-2.626;2023-04-15T04:45:06;1.71;95.90
70154;DHT22;57519;51.494;-2.626;2023-04-15T04:47:31;1.67;95.73
70154;DHT22;57519;51.494;-2.626;2023-04-15T04:49:57;1.64;95.70
70154;DHT22;57519;51.494;-2.626;2023-04-15T04:52:22;1.56;95.62
70154;DHT22;57519;51.494;-2.626;2023-04-15T04:54:48;1.49;95.53
70154;DHT22;57519;51.494;-2.626;2023-04-15T04:57:13;1.43;95.49
70154;DHT22;57519;51.494;-2.626;2023-04-15T04:59:39;1.41;95.54
70154;DHT22;57519;51.494;-2.626;2023-04-15T05:02:04;1.38;95.48
70154;DHT22;57519;51.494;-2.626;2023-04-15T05:04:30;1.36;95.51
70154;DHT22;57519;51.494;-2.626;2023-04-15T05:06:56;1.42;95.57
70154;DHT22;57519;51.494;-2.626;2023-04-15T05:09:22;1.41;95.50
70154;DHT22;57519;51.494;-2.626;2023-04-15T05:11:47;1.45;95.58
70154;DHT22;57519;51.494;-2.626;2023-04-15T05:14:13;1.49;95.61
70154;DHT22;57519;51.494;-2.626;2023-04-15T05:16:38;1.49;95.59
70154;DHT22;57519;51.494;-2.626;2023-04-15T05:19:04;1.39;95.27
70154;DHT22;57519;51.494;-2.626;2023-04-15T05:21:29;1.38;95.25
70154;DHT22;57519;51.494;-2.626;2023-04-15T05:23:55;1.36;95.30
70154;DHT22;57519;51.494;-2.626;2023-04-15T05:26:21;1.31;95.33
70154;DHT22;57519;51.494;-2.626;2023-04-15T05:28:46;1.36;95.26
70154;DHT22;57519;51.494;-2.626;2023-04-15T05:31:12;1.49;95.48
70154;DHT22;57519;51.494;-2.626;2023-04-15T05:33:37;1.50;95.52
70154;DHT22;57519;51.494;-2.626;2023-04-15T05:36:03;1.50;95.40
70154;DHT22;57519;51.494;-2.626;2023-04-15T05:38:28;1.32;95.02
70154;DHT22;57519;51.494;-2.626;2023-04-15T05:40:54;1.31;95.19
70154;DHT22;57519;51.494;-2.626;2023-04-15T05:43:19;1.24;95.18
70154;DHT22;57519;51.494;-2.626;2023-04-15T05:45:44;1.27;95.28
70154;DHT22;57519;51.494;-2.626;2023-04-15T05:48:10;1.39;95.43
70154;DHT22;57519;51.494;-2.626;2023-04-15T05:50:36;1.50;95.56
70154;DHT22;57519;51.494;-2.626;2023-04-15T05:53:01;1.63;95.58
70154;DHT22;57519;51.494;-2.626;2023-04-15T05:55:27;1.58;95.37
70154;DHT22;57519;51.494;-2.626;2023-04-15T05:57:52;1.53;95.16
70154;DHT22;57519;51.494;-2.626;2023-04-15T06:00:18;1.48;95.08
70154;DHT22;57519;51.494;-2.626;2023-04-15T06:02:44;1.50;95.09
70154;DHT22;57519;51.494;-2.626;2023-04-15T06:05:09;1.38;94.96
70154;DHT22;57519;51.494;-2.626;2023-04-15T06:07:36;1.56;95.31
70154;DHT22;57519;51.494;-2.626;2023-04-15T06:10:02;1.58;95.22
70154;DHT22;57519;51.494;-2.626;2023-04-15T06:12:28;1.67;95.30
70154;DHT22;57519;51.494;-2.626;2023-04-15T06:14:53;1.69;95.24
70154;DHT22;57519;51.494;-2.626;2023-04-15T06:19:44;1.80;95.15
70154;DHT22;57519;51.494;-2.626;2023-04-15T06:22:10;1.86;95.11
70154;DHT22;57519;51.494;-2.626;2023-04-15T06:24:35;1.96;94.99
70154;DHT22;57519;51.494;-2.626;2023-04-15T06:27:01;2.14;94.81
70154;DHT22;57519;51.494;-2.626;2023-04-15T06:29:27;2.22;94.82
70154;DHT22;57519;51.494;-2.626;2023-04-15T06:31:53;2.27;94.69
70154;DHT22;57519;51.494;-2.626;2023-04-15T06:34:18;2.52;94.67
70154;DHT22;57519;51.494;-2.626;2023-04-15T06:36:44;2.79;94.77
70154;DHT22;57519;51.494;-2.626;2023-04-15T06:39:09;3.03;94.63
70154;DHT22;57519;51.494;-2.626;2023-04-15T06:41:35;3.20;94.52
70154;DHT22;57519;51.494;-2.626;2023-04-15T06:44:01;3.36;94.37
70154;DHT22;57519;51.494;-2.626;2023-04-15T06:46:26;3.50;94.39
70154;DHT22;57519;51.494;-2.626;2023-04-15T06:48:51;3.56;94.29
70154;DHT22;57519;51.494;-2.626;2023-04-15T06:51:17;3.50;94.16
70154;DHT22;57519;51.494;-2.626;2023-04-15T06:53:43;3.38;94.15
70154;DHT22;57519;51.494;-2.626;2023-04-15T06:56:08;3.34;94.39
70154;DHT22;57519;51.494;-2.626;2023-04-15T06:58:34;3.38;94.57
70154;DHT22;57519;51.494;-2.626;2023-04-15T07:01:00;3.39;94.60
70154;DHT22;57519;51.494;-2.626;2023-04-15T07:03:26;3.51;94.56
70154;DHT22;57519;51.494;-2.626;2023-04-15T07:05:51;3.70;94.66
70154;DHT22;57519;51.494;-2.626;2023-04-15T07:08:18;3.79;94.62
70154;DHT22;57519;51.494;-2.626;2023-04-15T07:10:45;3.94;94.68
70154;DHT22;57519;51.494;-2.626;2023-04-15T07:13:11;4.04;94.71
70154;DHT22;57519;51.494;-2.626;2023-04-15T07:15:37;4.33;94.58
70154;DHT22;57519;51.494;-2.626;2023-04-15T07:18:02;4.64;94.32
70154;DHT22;57519;51.494;-2.626;2023-04-15T07:20:28;4.89;93.99
70154;DHT22;57519;51.494;-2.626;2023-04-15T07:22:53;5.22;93.70
70154;DHT22;57519;51.494;-2.626;2023-04-15T07:25:19;5.44;93.22
70154;DHT22;57519;51.494;-2.626;2023-04-15T07:27:45;5.66;93.11
70154;DHT22;57519;51.494;-2.626;2023-04-15T07:30:10;5.88;92.89
70154;DHT22;57519;51.494;-2.626;2023-04-15T07:32:36;6.16;92.65
70154;DHT22;57519;51.494;-2.626;2023-04-15T07:35:02;6.33;92.36
70154;DHT22;57519;51.494;-2.626;2023-04-15T07:37:28;6.51;92.37
70154;DHT22;57519;51.494;-2.626;2023-04-15T07:39:54;6.68;92.09
70154;DHT22;57519;51.494;-2.626;2023-04-15T07:42:20;7.03;92.04
70154;DHT22;57519;51.494;-2.626;2023-04-15T07:44:45;7.13;91.74
70154;DHT22;57519;51.494;-2.626;2023-04-15T07:47:11;7.23;91.87
70154;DHT22;57519;51.494;-2.626;2023-04-15T07:49:36;7.20;91.67
70154;DHT22;57519;51.494;-2.626;2023-04-15T07:52:02;7.12;91.16
70154;DHT22;57519;51.494;-2.626;2023-04-15T07:54:27;7.15;91.44
70154;DHT22;57519;51.494;-2.626;2023-04-15T07:56:53;7.10;90.92
70154;DHT22;57519;51.494;-2.626;2023-04-15T07:59:18;7.05;88.87
70154;DHT22;57519;51.494;-2.626;2023-04-15T08:01:44;7.07;89.90
70154;DHT22;57519;51.494;-2.626;2023-04-15T08:04:09;7.24;89.76
70154;DHT22;57519;51.494;-2.626;2023-04-15T08:06:35;7.17;86.90
70154;DHT22;57519;51.494;-2.626;2023-04-15T08:09:04;7.31;88.03
70154;DHT22;57519;51.494;-2.626;2023-04-15T08:11:29;7.38;86.49
70154;DHT22;57519;51.494;-2.626;2023-04-15T08:13:55;7.61;86.41
70154;DHT22;57519;51.494;-2.626;2023-04-15T08:16:22;7.58;85.08
70154;DHT22;57519;51.494;-2.626;2023-04-15T08:18:49;7.64;85.32
70154;DHT22;57519;51.494;-2.626;2023-04-15T08:21:16;7.64;83.48
70154;DHT22;57519;51.494;-2.626;2023-04-15T08:23:42;7.77;84.36
70154;DHT22;57519;51.494;-2.626;2023-04-15T08:26:08;7.89;85.25
70154;DHT22;57519;51.494;-2.626;2023-04-15T08:28:34;7.99;82.57
70154;DHT22;57519;51.494;-2.626;2023-04-15T08:30:59;7.94;82.11
70154;DHT22;57519;51.494;-2.626;2023-04-15T08:33:25;7.92;82.61
70154;DHT22;57519;51.494;-2.626;2023-04-15T08:35:51;8.13;83.76
70154;DHT22;57519;51.494;-2.626;2023-04-15T08:38:16;8.21;82.91
70154;DHT22;57519;51.494;-2.626;2023-04-15T08:40:44;8.28;83.46
70154;DHT22;57519;51.494;-2.626;2023-04-15T08:43:18;8.19;82.08
70154;DHT22;57519;51.494;-2.626;2023-04-15T08:45:45;8.26;83.09
70154;DHT22;57519;51.494;-2.626;2023-04-15T08:48:14;8.22;81.61
70154;DHT22;57519;51.494;-2.626;2023-04-15T08:50:43;8.33;80.78
70154;DHT22;57519;51.494;-2.626;2023-04-15T08:53:12;8.33;81.08
70154;DHT22;57519;51.494;-2.626;2023-04-15T08:55:45;8.47;80.71
70154;DHT22;57519;51.494;-2.626;2023-04-15T08:58:15;8.68;81.32
70154;DHT22;57519;51.494;-2.626;2023-04-15T09:00:41;8.80;82.10
70154;DHT22;57519;51.494;-2.626;2023-04-15T09:03:07;8.82;80.83
70154;DHT22;57519;51.494;-2.626;2023-04-15T09:05:33;8.93;81.52
70154;DHT22;57519;51.494;-2.626;2023-04-15T09:08:00;8.97;81.56
70154;DHT22;57519;51.494;-2.626;2023-04-15T09:10:26;9.08;80.18
70154;DHT22;57519;51.494;-2.626;2023-04-15T09:12:51;9.25;81.79
70154;DHT22;57519;51.494;-2.626;2023-04-15T09:15:17;9.53;81.49
70154;DHT22;57519;51.494;-2.626;2023-04-15T09:17:43;9.50;78.81
70154;DHT22;57519;51.494;-2.626;2023-04-15T09:20:12;9.12;76.64
70154;DHT22;57519;51.494;-2.626;2023-04-15T09:22:39;8.97;79.51
70154;DHT22;57519;51.494;-2.626;2023-04-15T09:27:50;8.75;78.85
70154;DHT22;57519;51.494;-2.626;2023-04-15T09:30:16;9.01;79.88
70154;DHT22;57519;51.494;-2.626;2023-04-15T09:32:55;9.48;77.60
70154;DHT22;57519;51.494;-2.626;2023-04-15T09:35:22;9.66;76.23
70154;DHT22;57519;51.494;-2.626;2023-04-15T09:37:51;9.69;76.86
70154;DHT22;57519;51.494;-2.626;2023-04-15T09:40:38;9.88;76.26
70154;DHT22;57519;51.494;-2.626;2023-04-15T09:43:05;9.98;76.18
70154;DHT22;57519;51.494;-2.626;2023-04-15T09:45:32;10.21;76.23
70154;DHT22;57519;51.494;-2.626;2023-04-15T09:47:58;10.38;75.56
70154;DHT22;57519;51.494;-2.626;2023-04-15T09:50:26;10.11;75.64
70154;DHT22;57519;51.494;-2.626;2023-04-15T09:52:53;10.09;73.34
70154;DHT22;57519;51.494;-2.626;2023-04-15T09:55:18;10.19;74.31
70154;DHT22;57519;51.494;-2.626;2023-04-15T09:57:45;10.21;75.86
70154;DHT22;57519;51.494;-2.626;2023-04-15T10:00:11;10.04;74.24
70154;DHT22;57519;51.494;-2.626;2023-04-15T10:02:41;9.87;74.27
70154;DHT22;57519;51.494;-2.626;2023-04-15T10:05:09;9.94;75.06
70154;DHT22;57519;51.494;-2.626;2023-04-15T10:07:35;10.14;74.09
70154;DHT22;57519;51.494;-2.626;2023-04-15T10:10:02;10.09;73.37
70154;DHT22;57519;51.494;-2.626;2023-04-15T10:12:30;10.49;74.50
70154;DHT22;57519;51.494;-2.626;2023-04-15T10:14:59;10.57;73.21
70154;DHT22;57519;51.494;-2.626;2023-04-15T10:17:28;10.46;72.94
70154;DHT22;57519;51.494;-2.626;2023-04-15T10:20:00;10.53;71.38
70154;DHT22;57519;51.494;-2.626;2023-04-15T10:22:27;10.84;71.48
70154;DHT22;57519;51.494;-2.626;2023-04-15T10:24:53;10.81;71.35
70154;DHT22;57519;51.494;-2.626;2023-04-15T10:27:20;10.93;73.36
70154;DHT22;57519;51.494;-2.626;2023-04-15T10:29:48;11.21;73.40
70154;DHT22;57519;51.494;-2.626;2023-04-15T10:32:17;11.35;71.52
70154;DHT22;57519;51.494;-2.626;2023-04-15T10:34:44;11.00;71.11
70154;DHT22;57519;51.494;-2.626;2023-04-15T10:37:10;11.01;71.54
70154;DHT22;57519;51.494;-2.626;2023-04-15T10:42:08;11.03;69.04
70154;DHT22;57519;51.494;-2.626;2023-04-15T10:44:47;11.15;70.43
70154;DHT22;57519;51.494;-2.626;2023-04-15T10:47:17;11.46;68.85
70154;DHT22;57519;51.494;-2.626;2023-04-15T10:49:51;11.59;69.61
70154;DHT22;57519;51.494;-2.626;2023-04-15T10:52:21;11.72;70.04
70154;DHT22;57519;51.494;-2.626;2023-04-15T10:54:47;11.69;70.10
70154;DHT22;57519;51.494;-2.626;2023-04-15T10:57:16;11.83;70.34
70154;DHT22;57519;51.494;-2.626;2023-04-15T11:03:49;11.86;69.01
70154;DHT22;57519;51.494;-2.626;2023-04-15T11:05:51;11.80;68.59
70154;DHT22;57519;51.494;-2.626;2023-04-15T11:08:17;11.49;70.37
70154;DHT22;57519;51.494;-2.626;2023-04-15T11:15:38;12.18;66.06
70154;DHT22;57519;51.494;-2.626;2023-04-15T11:18:15;11.90;67.16
70154;DHT22;57519;51.494;-2.626;2023-04-15T11:20:45;11.67;69.12
70154;DHT22;57519;51.494;-2.626;2023-04-15T11:23:12;11.70;68.05
70154;DHT22;57519;51.494;-2.626;2023-04-15T11:25:38;11.72;68.53
70154;DHT22;57519;51.494;-2.626;2023-04-15T11:28:04;11.38;68.39
70154;DHT22;57519;51.494;-2.626;2023-04-15T11:30:35;11.31;67.37
70154;DHT22;57519;51.494;-2.626;2023-04-15T11:33:05;11.66;68.33
70154;DHT22;57519;51.494;-2.626;2023-04-15T11:35:32;12.11;67.67
70154;DHT22;57519;51.494;-2.626;2023-04-15T11:38:04;12.10;66.72
70154;DHT22;57519;51.494;-2.626;2023-04-15T11:40:32;12.01;67.68
70154;DHT22;57519;51.494;-2.626;2023-04-15T11:43:18;11.76;67.08
70154;DHT22;57519;51.494;-2.626;2023-04-15T11:45:56;11.32;65.70
70154;DHT22;57519;51.494;-2.626;2023-04-15T11:48:26;11.19;66.21
70154;DHT22;57519;51.494;-2.626;2023-04-15T11:50:57;11.27;66.08
70154;DHT22;57519;51.494;-2.626;2023-04-15T11:53:23;11.61;66.71
70154;DHT22;57519;51.494;-2.626;2023-04-15T11:55:52;12.13;64.10
70154;DHT22;57519;51.494;-2.626;2023-04-15T11:58:20;12.41;62.74
70154;DHT22;57519;51.494;-2.626;2023-04-15T12:00:51;12.46;63.64
70154;DHT22;57519;51.494;-2.626;2023-04-15T12:03:27;12.41;62.31
70154;DHT22;57519;51.494;-2.626;2023-04-15T12:14:14;12.05;64.44
70154;DHT22;57519;51.494;-2.626;2023-04-15T12:16:54;11.76;65.57
70154;DHT22;57519;51.494;-2.626;2023-04-15T12:19:24;11.91;65.03
70154;DHT22;57519;51.494;-2.626;2023-04-15T12:21:52;12.13;65.65
70154;DHT22;57519;51.494;-2.626;2023-04-15T12:24:20;12.48;65.96
70154;DHT22;57519;51.494;-2.626;2023-04-15T12:26:54;12.73;63.17
70154;DHT22;57519;51.494;-2.626;2023-04-15T12:29:29;13.31;64.81
70154;DHT22;57519;51.494;-2.626;2023-04-15T12:32:03;13.36;64.06
70154;DHT22;57519;51.494;-2.626;2023-04-15T12:34:34;12.90;64.14
70154;DHT22;57519;51.494;-2.626;2023-04-15T12:37:01;12.17;63.77
70154;DHT22;57519;51.494;-2.626;2023-04-15T12:39:29;12.08;65.17
70154;DHT22;57519;51.494;-2.626;2023-04-15T12:41:55;12.21;63.41
70154;DHT22;57519;51.494;-2.626;2023-04-15T12:44:23;12.71;65.24
70154;DHT22;57519;51.494;-2.626;2023-04-15T12:46:50;13.03;59.75
70154;DHT22;57519;51.494;-2.626;2023-04-15T12:49:17;13.16;60.27
70154;DHT22;57519;51.494;-2.626;2023-04-15T12:51:46;13.68;61.75
70154;DHT22;57519;51.494;-2.626;2023-04-15T12:54:12;13.65;62.80
70154;DHT22;57519;51.494;-2.626;2023-04-15T12:56:37;13.36;61.21
70154;DHT22;57519;51.494;-2.626;2023-04-15T12:59:02;13.27;62.65
70154;DHT22;57519;51.494;-2.626;2023-04-15T13:01:28;13.30;60.15
70154;DHT22;57519;51.494;-2.626;2023-04-15T13:03:53;13.37;59.35
70154;DHT22;57519;51.494;-2.626;2023-04-15T13:06:19;13.59;61.98
70154;DHT22;57519;51.494;-2.626;2023-04-15T13:08:45;13.50;60.71
70154;DHT22;57519;51.494;-2.626;2023-04-15T13:11:11;13.36;60.59
70154;DHT22;57519;51.494;-2.626;2023-04-15T13:13:36;13.36;62.28
70154;DHT22;57519;51.494;-2.626;2023-04-15T13:16:02;13.54;60.61
70154;DHT22;57519;51.494;-2.626;2023-04-15T13:18:27;13.61;62.46
70154;DHT22;57519;51.494;-2.626;2023-04-15T13:20:53;13.53;60.25
70154;DHT22;57519;51.494;-2.626;2023-04-15T13:23:19;13.57;60.80
70154;DHT22;57519;51.494;-2.626;2023-04-15T13:25:44;13.41;59.92
70154;DHT22;57519;51.494;-2.626;2023-04-15T13:28:10;13.54;59.68
70154;DHT22;57519;51.494;-2.626;2023-04-15T13:30:37;13.72;61.75
70154;DHT22;57519;51.494;-2.626;2023-04-15T13:33:03;13.78;58.51
70154;DHT22;57519;51.494;-2.626;2023-04-15T13:35:30;13.93;59.08
70154;DHT22;57519;51.494;-2.626;2023-04-15T13:37:55;14.05;61.10
70154;DHT22;57519;51.494;-2.626;2023-04-15T13:40:21;14.01;59.46
70154;DHT22;57519;51.494;-2.626;2023-04-15T13:42:46;14.13;59.67
70154;DHT22;57519;51.494;-2.626;2023-04-15T13:45:12;13.71;55.92
70154;DHT22;57519;51.494;-2.626;2023-04-15T13:47:38;13.89;58.56
70154;DHT22;57519;51.494;-2.626;2023-04-15T13:50:04;13.95;58.35
70154;DHT22;57519;51.494;-2.626;2023-04-15T13:52:30;13.44;59.00
70154;DHT22;57519;51.494;-2.626;2023-04-15T13:54:55;13.48;59.14
70154;DHT22;57519;51.494;-2.626;2023-04-15T13:57:21;13.78;60.00
70154;DHT22;57519;51.494;-2.626;2023-04-15T13:59:46;13.87;59.69
70154;DHT22;57519;51.494;-2.626;2023-04-15T14:02:12;13.61;57.77
70154;DHT22;57519;51.494;-2.626;2023-04-15T14:04:37;13.66;58.09
70154;DHT22;57519;51.494;-2.626;2023-04-15T14:07:03;13.96;59.52
70154;DHT22;57519;51.494;-2.626;2023-04-15T14:09:28;14.33;58.14
70154;DHT22;57519;51.494;-2.626;2023-04-15T14:11:54;14.47;57.64
70154;DHT22;57519;51.494;-2.626;2023-04-15T14:14:20;14.67;56.98
70154;DHT22;57519;51.494;-2.626;2023-04-15T14:16:46;14.30;55.07
70154;DHT22;57519;51.494;-2.626;2023-04-15T14:19:12;14.43;56.58
70154;DHT22;57519;51.494;-2.626;2023-04-15T14:21:37;14.13;57.41
70154;DHT22;57519;51.494;-2.626;2023-04-15T14:24:03;14.06;55.59
70154;DHT22;57519;51.494;-2.626;2023-04-15T14:26:28;14.23;56.39
70154;DHT22;57519;51.494;-2.626;2023-04-15T14:28:54;14.29;56.66
70154;DHT22;57519;51.494;-2.626;2023-04-15T14:31:19;14.30;57.14
70154;DHT22;57519;51.494;-2.626;2023-04-15T14:33:45;14.32;56.24
70154;DHT22;57519;51.494;-2.626;2023-04-15T14:36:10;14.56;56.32
70154;DHT22;57519;51.494;-2.626;2023-04-15T14:38:36;14.75;56.00
70154;DHT22;57519;51.494;-2.626;2023-04-15T14:41:06;15.09;57.39
70154;DHT22;57519;51.494;-2.626;2023-04-15T14:43:32;14.45;54.53
70154;DHT22;57519;51.494;-2.626;2023-04-15T14:45:58;14.64;57.22
70154;DHT22;57519;51.494;-2.626;2023-04-15T14:48:23;14.57;55.20
70154;DHT22;57519;51.494;-2.626;2023-04-15T14:50:48;14.47;56.44
70154;DHT22;57519;51.494;-2.626;2023-04-15T14:53:14;14.54;55.85
70154;DHT22;57519;51.494;-2.626;2023-04-15T14:55:40;14.59;55.36
70154;DHT22;57519;51.494;-2.626;2023-04-15T14:58:05;14.44;56.55
70154;DHT22;57519;51.494;-2.626;2023-04-15T15:00:32;14.40;56.30
70154;DHT22;57519;51.494;-2.626;2023-04-15T15:02:58;14.16;54.49
70154;DHT22;57519;51.494;-2.626;2023-04-15T15:05:23;14.50;56.26
70154;DHT22;57519;51.494;-2.626;2023-04-15T15:07:49;14.80;56.97
70154;DHT22;57519;51.494;-2.626;2023-04-15T15:10:15;14.67;53.73
70154;DHT22;57519;51.494;-2.626;2023-04-15T15:12:40;14.82;54.93
70154;DHT22;57519;51.494;-2.626;2023-04-15T15:15:06;14.56;54.65
70154;DHT22;57519;51.494;-2.626;2023-04-15T15:17:31;14.84;55.54
70154;DHT22;57519;51.494;-2.626;2023-04-15T15:19:57;14.91;54.52
70154;DHT22;57519;51.494;-2.626;2023-04-15T15:22:22;15.15;55.55
70154;DHT22;57519;51.494;-2.626;2023-04-15T15:24:48;15.20;54.34
70154;DHT22;57519;51.494;-2.626;2023-04-15T15:27:14;14.75;53.63
70154;DHT22;57519;51.494;-2.626;2023-04-15T15:29:39;15.05;54.93
70154;DHT22;57519;51.494;-2.626;2023-04-15T15:32:05;15.19;53.81
70154;DHT22;57519;51.494;-2.626;2023-04-15T15:34:30;15.26;54.18
70154;DHT22;57519;51.494;-2.626;2023-04-15T15:36:56;15.02;53.31
70154;DHT22;57519;51.494;-2.626;2023-04-15T15:39:22;15.29;54.54
70154;DHT22;57519;51.494;-2.626;2023-04-15T15:41:48;15.32;54.89
70154;DHT22;57519;51.494;-2.626;2023-04-15T15:44:14;15.26;56.21